createdAt,value
2019-02-09T00:02:05.050Z,9.43
2019-02-09T00:04:35.389Z,9.33
2019-02-09T00:07:05.738Z,8.87
2019-02-09T00:09:35.533Z,9.20
2019-02-09T00:12:05.887Z,8.17
2019-02-09T00:14:35.994Z,8.03
2019-02-09T00:17:06.402Z,7.90
2019-02-09T00:19:36.664Z,8.90
2019-02-09T00:22:07.700Z,9.30
2019-02-09T00:24:37.671Z,9.83
2019-02-09T00:27:07.723Z,10.50
2019-02-09T00:29:45.896Z,9.60
2019-02-09T00:32:10.105Z,8.73
2019-02-09T00:34:40.228Z,8.57
2019-02-09T00:37:10.160Z,8.83
2019-02-09T00:39:40.633Z,7.53
2019-02-09T00:42:10.692Z,9.00
2019-02-09T00:44:40.680Z,9.93
2019-02-09T00:47:10.612Z,10.43
2019-02-09T00:49:40.596Z,10.57
2019-02-09T00:52:10.986Z,10.23
2019-02-09T00:54:41.041Z,10.50
2019-02-09T00:57:10.862Z,9.77
2019-02-09T00:59:40.938Z,9.40
2019-02-09T01:02:11.356Z,8.50
2019-02-09T01:04:41.346Z,9.00
2019-02-09T01:07:11.223Z,9.13
2019-02-09T01:09:41.461Z,8.70
2019-02-09T01:12:11.376Z,8.30
2019-02-09T01:14:41.389Z,8.57
2019-02-09T01:17:11.299Z,8.80
2019-02-09T01:19:41.824Z,9.57
2019-02-09T01:22:12.013Z,9.27
2019-02-09T01:24:41.929Z,9.03
2019-02-09T01:27:12.232Z,10.00
2019-02-09T01:29:42.345Z,9.97
2019-02-09T01:32:12.355Z,9.57
2019-02-09T01:34:42.280Z,10.23
2019-02-09T01:37:12.180Z,10.63
2019-02-09T01:39:42.198Z,9.77
2019-02-09T01:42:12.302Z,9.40
2019-02-09T01:44:42.256Z,10.33
2019-02-09T01:47:12.131Z,9.90
2019-02-09T01:49:42.204Z,9.70
2019-02-09T01:52:12.350Z,10.20
2019-02-09T01:54:42.282Z,10.50
2019-02-09T01:57:12.768Z,10.23
2019-02-09T01:59:42.802Z,10.40
2019-02-09T02:02:12.692Z,10.77
2019-02-09T02:04:43.145Z,10.80
2019-02-09T02:07:13.600Z,11.47
2019-02-09T02:09:43.593Z,10.37
2019-02-09T02:12:14.560Z,11.30
2019-02-09T02:14:45.110Z,12.20
2019-02-09T02:17:15.514Z,13.00
2019-02-09T02:19:45.527Z,12.70
2019-02-09T02:22:15.639Z,13.87
2019-02-09T02:24:45.555Z,13.73
2019-02-09T02:27:15.860Z,14.43
2019-02-09T02:29:45.775Z,14.10
2019-02-09T02:32:15.813Z,14.73
2019-02-09T02:34:46.093Z,14.80
2019-02-09T02:37:16.106Z,14.67
2019-02-09T02:39:46.014Z,14.47
2019-02-09T02:42:16.039Z,14.87
2019-02-09T02:44:46.038Z,13.73
2019-02-09T02:47:16.053Z,15.10
2019-02-09T02:49:46.062Z,14.20
2019-02-09T02:52:15.979Z,14.80
2019-02-09T02:54:46.870Z,13.23
2019-02-09T02:57:16.784Z,14.20
2019-02-09T02:59:46.701Z,13.90
2019-02-09T03:02:16.550Z,13.83
2019-02-09T03:04:46.937Z,13.50
2019-02-09T03:07:16.852Z,13.43
2019-02-09T03:09:46.844Z,13.37
2019-02-09T03:12:16.866Z,14.07
2019-02-09T03:14:46.870Z,14.43
2019-02-09T03:17:16.939Z,15.20
2019-02-09T03:19:46.945Z,20.47
2019-02-09T03:22:16.903Z,24.67
2019-02-09T03:24:46.815Z,34.53
2019-02-09T03:27:16.760Z,31.23
2019-02-09T03:29:47.038Z,31.00
2019-02-09T03:32:17.246Z,29.73
2019-02-09T03:34:47.256Z,25.30
2019-02-09T03:37:17.182Z,28.03
2019-02-09T03:39:47.485Z,28.83
2019-02-09T03:42:17.881Z,26.80
2019-02-09T03:44:47.921Z,22.80
2019-02-09T03:47:17.840Z,17.73
2019-02-09T03:49:48.318Z,20.00
2019-02-09T03:52:18.649Z,16.30
2019-02-09T03:54:48.633Z,16.83
2019-02-09T03:57:19.174Z,14.93
2019-02-09T03:59:49.536Z,15.30
2019-02-09T04:02:19.446Z,17.17
2019-02-09T04:04:49.857Z,14.87
2019-02-09T04:07:19.852Z,15.83
2019-02-09T04:09:49.992Z,14.77
2019-02-09T04:12:20.089Z,14.03
2019-02-09T04:14:50.197Z,15.20
2019-02-09T04:17:20.310Z,15.37
2019-02-09T04:19:50.208Z,15.63
2019-02-09T04:22:20.440Z,13.77
2019-02-09T04:24:51.145Z,15.07
2019-02-09T04:27:21.241Z,13.90
2019-02-09T04:29:51.177Z,13.97
2019-02-09T04:32:21.268Z,14.40
2019-02-09T04:34:51.181Z,14.33
2019-02-09T04:37:21.220Z,14.43
2019-02-09T04:39:51.730Z,15.53
2019-02-09T04:42:22.297Z,15.77
2019-02-09T04:44:52.504Z,14.53
2019-02-09T04:47:22.541Z,14.97
2019-02-09T04:49:52.531Z,15.50
2019-02-09T04:52:22.736Z,14.60
2019-02-09T04:54:52.942Z,15.87
2019-02-09T04:57:22.851Z,15.10
2019-02-09T04:59:52.701Z,14.80
2019-02-09T05:02:23.477Z,15.67
2019-02-09T05:04:53.279Z,15.57
2019-02-09T05:07:23.270Z,15.03
2019-02-09T05:09:53.610Z,15.77
2019-02-09T05:12:23.685Z,16.87
2019-02-09T05:14:53.739Z,16.20
2019-02-09T05:17:23.737Z,16.30
2019-02-09T05:19:53.749Z,16.00
2019-02-09T05:22:23.971Z,15.37
2019-02-09T05:24:53.938Z,15.03
2019-02-09T05:27:23.817Z,15.17
2019-02-09T05:29:54.216Z,13.87
2019-02-09T05:32:24.383Z,14.97
2019-02-09T05:34:54.183Z,15.57
2019-02-09T05:37:24.020Z,16.27
2019-02-09T05:39:53.982Z,16.60
2019-02-09T05:42:24.291Z,18.37
2019-02-09T05:44:54.360Z,16.70
2019-02-09T05:47:24.203Z,16.93
2019-02-09T05:49:54.285Z,17.33
2019-02-09T05:52:24.396Z,16.13
2019-02-09T05:54:54.793Z,16.33
2019-02-09T05:57:24.614Z,16.00
2019-02-09T05:59:54.626Z,15.47
2019-02-09T06:02:25.244Z,16.00
2019-02-09T06:04:55.204Z,15.67
2019-02-09T06:07:26.038Z,16.83
2019-02-09T06:09:55.891Z,14.80
2019-02-09T06:12:25.799Z,15.57
2019-02-09T06:14:55.678Z,15.70
2019-02-09T06:17:26.033Z,15.77
2019-02-09T06:19:55.997Z,15.67
2019-02-09T06:22:25.914Z,17.50
2019-02-09T06:24:55.856Z,17.40
2019-02-09T06:27:25.964Z,17.47
2019-02-09T06:29:56.156Z,15.83
2019-02-09T06:32:26.326Z,15.77
2019-02-09T06:34:56.269Z,15.73
2019-02-09T06:37:26.277Z,15.23
2019-02-09T06:39:56.230Z,14.17
2019-02-09T06:42:26.467Z,13.40
2019-02-09T06:44:56.510Z,14.57
2019-02-09T06:47:26.526Z,13.93
2019-02-09T06:49:56.731Z,12.97
2019-02-09T06:52:26.742Z,14.47
2019-02-09T06:54:56.763Z,13.73
2019-02-09T06:57:26.966Z,13.10
2019-02-09T06:59:56.895Z,13.97
2019-02-09T07:02:27.040Z,14.53
2019-02-09T07:04:57.085Z,13.60
2019-02-09T07:07:27.008Z,12.57
2019-02-09T07:09:57.022Z,13.23
2019-02-09T07:12:27.433Z,12.70
2019-02-09T07:14:57.443Z,12.97
2019-02-09T07:17:27.449Z,13.90
2019-02-09T07:19:57.755Z,14.20
2019-02-09T07:22:27.676Z,14.50
2019-02-09T07:24:57.498Z,14.20
2019-02-09T07:27:27.378Z,13.80
2019-02-09T07:29:57.572Z,14.47
2019-02-09T07:32:27.776Z,13.67
2019-02-09T07:34:57.729Z,14.33
2019-02-09T07:37:27.756Z,16.97
2019-02-09T07:39:57.753Z,20.97
2019-02-09T07:42:27.960Z,15.63
2019-02-09T07:44:57.896Z,15.60
2019-02-09T07:47:28.087Z,16.30
2019-02-09T07:49:58.096Z,18.30
2019-02-09T07:52:28.011Z,31.87
2019-02-09T07:54:58.079Z,23.20
2019-02-09T07:57:27.903Z,18.73
2019-02-09T07:59:57.845Z,16.77
2019-02-09T08:02:27.782Z,15.93
2019-02-09T08:04:57.771Z,18.10
2019-02-09T08:07:27.788Z,20.13
2019-02-09T08:09:58.102Z,22.40
2019-02-09T08:12:28.102Z,24.60
2019-02-09T08:14:58.362Z,22.27
2019-02-09T08:17:28.322Z,27.17
2019-02-09T08:19:58.335Z,45.03
2019-02-09T08:22:28.549Z,48.47
2019-02-09T08:24:58.774Z,24.23
2019-02-09T08:27:28.994Z,18.90
2019-02-09T08:29:59.081Z,16.70
2019-02-09T08:32:29.084Z,15.37
2019-02-09T08:34:59.675Z,15.93
2019-02-09T08:37:29.598Z,14.40
2019-02-09T08:39:59.776Z,15.00
2019-02-09T08:42:29.850Z,14.63
2019-02-09T08:44:59.834Z,14.83
2019-02-09T08:47:29.741Z,15.50
2019-02-09T08:49:59.854Z,16.23
2019-02-09T08:52:30.259Z,14.43
2019-02-09T08:55:00.318Z,13.97
2019-02-09T08:57:30.285Z,13.50
2019-02-09T09:00:00.207Z,14.07
2019-02-09T09:02:30.403Z,13.70
2019-02-09T09:05:00.780Z,12.50
2019-02-09T09:07:30.722Z,12.30
2019-02-09T09:10:00.637Z,12.83
2019-02-09T09:12:30.550Z,12.77
2019-02-09T09:15:00.953Z,12.63
2019-02-09T09:17:30.867Z,12.60
2019-02-09T09:20:00.786Z,11.80
2019-02-09T09:22:30.792Z,11.27
2019-02-09T09:25:01.338Z,13.77
2019-02-09T09:27:31.475Z,14.67
2019-02-09T09:30:02.535Z,15.70
2019-02-09T09:32:32.516Z,13.13
2019-02-09T09:35:03.308Z,12.27
2019-02-09T09:37:33.223Z,10.70
2019-02-09T09:40:03.335Z,10.67
2019-02-09T09:42:33.441Z,9.93
2019-02-09T09:45:05.528Z,9.83
2019-02-09T09:47:35.826Z,10.00
2019-02-09T09:50:10.851Z,9.87
2019-02-09T09:52:41.058Z,10.43
2019-02-09T09:55:12.259Z,9.90
2019-02-09T09:57:42.459Z,9.83
2019-02-09T10:00:24.956Z,10.00
2019-02-09T10:02:55.272Z,9.70
2019-02-09T10:05:26.507Z,9.27
2019-02-09T10:07:56.860Z,10.13
2019-02-09T10:10:27.281Z,9.27
2019-02-09T10:12:57.177Z,9.47
2019-02-09T10:15:30.488Z,9.40
2019-02-09T10:18:00.545Z,9.07
2019-02-09T10:20:30.952Z,9.10
2019-02-09T10:23:00.874Z,7.93
2019-02-09T10:25:30.876Z,9.37
2019-02-09T10:28:00.983Z,9.00
2019-02-09T10:30:36.021Z,10.27
2019-02-09T10:33:05.930Z,11.30
2019-02-09T10:35:35.935Z,9.70
2019-02-09T10:38:06.248Z,8.83
2019-02-09T10:40:37.960Z,9.03
2019-02-09T10:43:09.898Z,9.50
2019-02-09T10:45:39.818Z,9.13
2019-02-09T10:48:10.025Z,9.13
2019-02-09T10:50:50.065Z,8.13
2019-02-09T10:53:19.976Z,8.53
2019-02-09T10:55:49.889Z,8.37
2019-02-09T10:58:19.803Z,8.33
2019-02-09T11:01:00.332Z,7.73
2019-02-09T11:03:30.249Z,8.13
2019-02-09T11:06:00.170Z,8.17
2019-02-09T11:08:30.176Z,7.17
2019-02-09T11:11:00.282Z,7.27
2019-02-09T11:13:31.526Z,7.83
2019-02-09T11:16:02.029Z,7.50
2019-02-09T11:18:31.989Z,7.17
2019-02-09T11:21:01.999Z,6.60
2019-02-09T11:23:31.918Z,7.40
2019-02-09T11:26:02.222Z,6.70
2019-02-09T11:28:32.528Z,6.87
2019-02-09T11:31:02.638Z,6.93
2019-02-09T11:33:32.650Z,7.20
2019-02-09T11:36:02.665Z,7.07
2019-02-09T11:38:32.585Z,6.77
2019-02-09T11:41:02.393Z,6.93
2019-02-09T11:43:32.339Z,7.10
2019-02-09T11:46:02.314Z,7.00
2019-02-09T11:48:32.427Z,7.23
2019-02-09T11:51:02.339Z,6.30
2019-02-09T11:53:33.045Z,6.53
2019-02-09T11:56:03.259Z,6.27
2019-02-09T11:58:33.264Z,6.50
2019-02-09T12:01:03.171Z,6.13
2019-02-09T12:03:33.610Z,6.70
2019-02-09T12:06:03.688Z,6.20
2019-02-09T12:08:33.658Z,6.30
2019-02-09T12:11:03.816Z,6.40
2019-02-09T12:13:33.957Z,6.37
2019-02-09T12:16:04.135Z,5.87
2019-02-09T12:18:33.975Z,5.90
2019-02-09T12:21:04.389Z,5.40
2019-02-09T12:23:34.720Z,5.40
2019-02-09T12:26:05.158Z,4.90
2019-02-09T12:28:35.201Z,5.53
2019-02-09T12:31:05.057Z,5.00
2019-02-09T12:33:35.193Z,5.37
2019-02-09T12:36:05.708Z,4.93
2019-02-09T12:38:36.046Z,5.23
2019-02-09T12:41:06.325Z,5.20
2019-02-09T12:43:36.291Z,4.63
2019-02-09T12:46:06.564Z,4.40
2019-02-09T12:48:37.071Z,4.40
2019-02-09T12:51:07.168Z,3.90
2019-02-09T12:53:37.558Z,3.77
2019-02-09T12:56:07.576Z,4.27
2019-02-09T12:58:38.403Z,4.10
2019-02-09T13:01:09.058Z,3.83
2019-02-09T13:03:39.577Z,3.90
2019-02-09T13:06:09.551Z,3.77
2019-02-09T13:08:39.682Z,4.30
2019-02-09T13:11:09.799Z,4.07
2019-02-09T13:13:39.707Z,3.87
2019-02-09T13:16:09.655Z,4.80
2019-02-09T13:18:39.476Z,3.60
2019-02-09T13:21:09.467Z,3.30
2019-02-09T13:23:40.046Z,4.43
2019-02-09T13:26:10.163Z,3.60
2019-02-09T13:28:40.026Z,3.60
2019-02-09T13:31:10.675Z,6.50
2019-02-09T13:33:40.881Z,5.50
2019-02-09T13:36:10.891Z,5.30
2019-02-09T13:38:41.302Z,4.70
2019-02-09T13:41:11.118Z,4.03
2019-02-09T13:43:41.322Z,3.40
2019-02-09T13:46:11.333Z,3.50
2019-02-09T13:48:41.246Z,3.33
2019-02-09T13:51:11.367Z,3.10
2019-02-09T13:53:41.917Z,3.07
2019-02-09T13:56:13.200Z,3.10
2019-02-09T13:58:43.455Z,3.20
2019-02-09T14:01:13.564Z,2.80
2019-02-09T14:03:46.974Z,3.00
2019-02-09T14:06:15.750Z,2.87
2019-02-09T14:08:46.073Z,2.50
2019-02-09T14:11:16.080Z,2.80
2019-02-09T14:13:46.278Z,2.90
2019-02-09T14:16:16.625Z,2.70
2019-02-09T14:18:48.171Z,2.97
2019-02-09T14:21:18.574Z,2.80
2019-02-09T14:23:48.489Z,2.30
2019-02-09T14:26:19.091Z,1.97
2019-02-09T14:28:49.400Z,2.00
2019-02-09T14:31:20.993Z,2.10
2019-02-09T14:33:55.023Z,2.20
2019-02-09T14:36:22.576Z,2.50
2019-02-09T14:38:52.591Z,2.33
2019-02-09T14:41:22.756Z,2.50
2019-02-09T14:43:52.594Z,2.37
2019-02-09T14:46:22.660Z,2.50
2019-02-09T14:48:52.574Z,2.37
2019-02-09T14:51:22.551Z,2.20
2019-02-09T14:53:52.503Z,2.07
2019-02-09T14:56:22.669Z,2.30
2019-02-09T14:58:52.714Z,2.23
2019-02-09T15:01:23.346Z,1.83
2019-02-09T15:03:53.558Z,2.00
2019-02-09T15:06:23.524Z,2.10
2019-02-09T15:08:53.734Z,2.37
2019-02-09T15:11:24.020Z,2.10
2019-02-09T15:13:54.066Z,2.10
2019-02-09T15:16:28.469Z,1.93
2019-02-09T15:18:59.169Z,2.10
2019-02-09T15:21:29.479Z,2.23
2019-02-09T15:23:59.422Z,2.20
2019-02-09T15:26:29.597Z,2.60
2019-02-09T15:28:59.703Z,2.50
2019-02-09T15:31:30.037Z,2.53
2019-02-09T15:34:00.307Z,2.30
2019-02-09T15:36:30.234Z,2.57
2019-02-09T15:39:01.035Z,2.20
2019-02-09T15:41:31.235Z,2.20
2019-02-09T15:44:01.445Z,2.10
2019-02-09T15:46:31.359Z,2.10
2019-02-09T15:49:01.279Z,2.20
2019-02-09T15:51:31.639Z,2.10
2019-02-09T15:54:01.532Z,1.97
2019-02-09T15:56:31.602Z,2.10
2019-02-09T15:59:01.615Z,2.40
2019-02-09T16:01:31.629Z,4.17
2019-02-09T16:04:01.543Z,2.30
2019-02-09T16:06:31.456Z,2.17
2019-02-09T16:09:01.477Z,2.73
2019-02-09T16:11:31.476Z,2.37
2019-02-09T16:14:01.490Z,2.40
2019-02-09T16:16:31.599Z,2.80
2019-02-09T16:19:01.540Z,2.53
2019-02-09T16:21:31.908Z,2.43
2019-02-09T16:24:01.833Z,2.60
2019-02-09T16:26:31.636Z,2.73
2019-02-09T16:29:01.658Z,2.47
2019-02-09T16:31:31.863Z,2.83
2019-02-09T16:34:02.470Z,3.00
2019-02-09T16:36:32.581Z,3.20
2019-02-09T16:39:02.623Z,3.13
2019-02-09T16:41:32.730Z,3.80
2019-02-09T16:44:02.717Z,3.60
2019-02-09T16:46:33.117Z,3.20
2019-02-09T16:49:03.130Z,3.67
2019-02-09T16:51:33.334Z,3.03
2019-02-09T16:54:03.248Z,2.90
2019-02-09T16:56:33.358Z,2.90
2019-02-09T16:59:03.474Z,2.90
2019-02-09T17:01:33.578Z,3.90
2019-02-09T17:04:03.511Z,3.60
2019-02-09T17:06:34.289Z,4.80
2019-02-09T17:09:05.789Z,4.27
2019-02-09T17:11:35.886Z,4.53
2019-02-09T17:14:06.590Z,4.73
2019-02-09T17:16:36.501Z,5.57
2019-02-09T17:19:06.707Z,4.50
2019-02-09T17:21:36.765Z,5.23
2019-02-09T17:24:07.421Z,5.73
2019-02-09T17:26:37.339Z,5.83
2019-02-09T17:29:07.545Z,5.77
2019-02-09T17:31:37.463Z,6.20
2019-02-09T17:34:07.664Z,6.73
2019-02-09T17:36:37.983Z,6.20
2019-02-09T17:39:09.480Z,5.73
2019-02-09T17:41:39.475Z,5.80
2019-02-09T17:44:09.387Z,5.47
2019-02-09T17:46:39.295Z,5.80
2019-02-09T17:49:09.602Z,6.17
2019-02-09T17:51:39.552Z,7.20
2019-02-09T17:54:09.443Z,7.17
2019-02-09T17:56:39.350Z,7.00
2019-02-09T17:59:09.355Z,7.27
2019-02-09T18:01:39.268Z,6.80
2019-02-09T18:04:09.182Z,6.87
2019-02-09T18:06:39.102Z,10.80
2019-02-09T18:09:09.697Z,10.20
2019-02-09T18:11:40.403Z,10.53
2019-02-09T18:14:11.163Z,13.50
2019-02-09T18:16:41.139Z,21.13
2019-02-09T18:19:11.122Z,16.47
2019-02-09T18:21:42.693Z,15.37
2019-02-09T18:24:12.715Z,13.00
2019-02-09T18:26:42.628Z,12.90
2019-02-09T18:29:12.751Z,13.00
2019-02-09T18:31:42.653Z,11.40
2019-02-09T18:34:12.672Z,13.23
2019-02-09T18:36:42.577Z,12.87
2019-02-09T18:39:13.412Z,12.67
2019-02-09T18:41:43.390Z,13.13
2019-02-09T18:44:13.204Z,15.47
2019-02-09T18:46:43.117Z,16.60
2019-02-09T18:49:13.132Z,16.87
2019-02-09T18:51:43.042Z,16.47
2019-02-09T18:54:13.741Z,15.30
2019-02-09T18:56:43.956Z,11.77
2019-02-09T18:59:13.862Z,16.57
2019-02-09T19:01:43.664Z,14.23
2019-02-09T19:04:13.788Z,13.20
2019-02-09T19:06:43.901Z,13.13
2019-02-09T19:09:14.205Z,15.07
2019-02-09T19:11:44.219Z,13.00
2019-02-09T19:14:14.522Z,12.67
2019-02-09T19:16:44.843Z,13.60
2019-02-09T19:19:14.850Z,16.27
2019-02-09T19:21:44.757Z,16.07
2019-02-09T19:24:14.769Z,13.90
2019-02-09T19:26:44.875Z,13.57
2019-02-09T19:29:14.906Z,12.37
2019-02-09T19:31:44.996Z,12.80
2019-02-09T19:34:15.320Z,11.27
2019-02-09T19:36:45.513Z,11.30
2019-02-09T19:39:15.326Z,13.07
2019-02-09T19:41:45.272Z,14.03
2019-02-09T19:44:15.459Z,13.97
2019-02-09T19:46:45.463Z,14.50
2019-02-09T19:49:15.431Z,15.10
2019-02-09T19:51:45.785Z,15.13
2019-02-09T19:54:15.794Z,14.93
2019-02-09T19:56:46.233Z,14.63
2019-02-09T19:59:16.110Z,14.93
2019-02-09T20:01:46.414Z,14.20
2019-02-09T20:04:16.504Z,13.77
2019-02-09T20:06:46.556Z,13.33
2019-02-09T20:09:16.647Z,12.93
2019-02-09T20:11:46.756Z,12.77
2019-02-09T20:14:16.968Z,14.30
2019-02-09T20:16:46.881Z,20.93
2019-02-09T20:19:16.817Z,16.90
2019-02-09T20:21:46.803Z,19.10
2019-02-09T20:24:16.815Z,16.83
2019-02-09T20:26:47.029Z,17.33
2019-02-09T20:29:16.939Z,16.97
2019-02-09T20:31:47.374Z,16.47
2019-02-09T20:34:17.357Z,14.13
2019-02-09T20:36:47.465Z,12.80
2019-02-09T20:39:17.377Z,13.10
2019-02-09T20:41:47.487Z,12.90
2019-02-09T20:44:18.795Z,13.20
2019-02-09T20:46:48.979Z,14.10
2019-02-09T20:49:19.083Z,17.23
2019-02-09T20:51:49.115Z,18.80
2019-02-09T20:54:19.415Z,31.00
2019-02-09T20:56:49.214Z,33.97
2019-02-09T20:59:19.349Z,24.10
2019-02-09T21:01:49.645Z,21.47
2019-02-09T21:04:20.346Z,21.27
2019-02-09T21:06:50.355Z,18.40
2019-02-09T21:09:20.392Z,16.87
2019-02-09T21:11:50.528Z,14.83
2019-02-09T21:14:20.427Z,15.83
2019-02-09T21:16:51.704Z,14.97
2019-02-09T21:19:22.481Z,14.70
2019-02-09T21:21:52.392Z,14.10
2019-02-09T21:24:22.435Z,15.57
2019-02-09T21:26:52.512Z,17.83
2019-02-09T21:29:22.916Z,16.57
2019-02-09T21:31:53.029Z,16.67
2019-02-09T21:34:23.055Z,17.93
2019-02-09T21:36:53.137Z,22.10
2019-02-09T21:39:22.955Z,20.43
2019-02-09T21:41:52.770Z,27.70
2019-02-09T21:44:22.617Z,34.13
2019-02-09T21:46:53.270Z,45.50
2019-02-09T21:49:23.317Z,37.53
2019-02-09T21:51:54.398Z,25.60
2019-02-09T21:54:24.550Z,28.67
2019-02-09T21:56:54.815Z,26.83
2019-02-09T21:59:24.732Z,40.87
2019-02-09T22:01:55.034Z,47.57
2019-02-09T22:04:25.250Z,59.37
2019-02-09T22:06:55.649Z,43.43
2019-02-09T22:09:25.908Z,36.80
2019-02-09T22:11:55.975Z,18.43
2019-02-09T22:14:26.104Z,12.57
2019-02-09T22:16:56.000Z,10.03
2019-02-09T22:19:26.231Z,17.43
2019-02-09T22:21:56.666Z,34.57
2019-02-09T22:24:26.913Z,12.70
2019-02-09T22:26:57.052Z,12.40
2019-02-09T22:29:27.759Z,12.60
2019-02-09T22:31:57.739Z,9.73
2019-02-09T22:34:27.662Z,8.30
2019-02-09T22:36:57.757Z,8.50
2019-02-09T22:39:28.266Z,7.57
2019-02-09T22:41:58.579Z,7.67
2019-02-09T22:44:28.439Z,10.17
2019-02-09T22:46:58.722Z,8.57
2019-02-09T22:49:28.798Z,8.20
2019-02-09T22:51:58.856Z,9.77
2019-02-09T22:54:28.918Z,12.70
2019-02-09T22:56:59.274Z,9.53
2019-02-09T22:59:29.237Z,7.93
2019-02-09T23:01:59.466Z,7.87
2019-02-09T23:04:39.480Z,7.93
2019-02-09T23:07:09.889Z,8.63
2019-02-09T23:09:39.901Z,8.23
2019-02-09T23:12:09.814Z,12.87
2019-02-09T23:14:40.119Z,10.33
2019-02-09T23:17:10.032Z,11.30
2019-02-09T23:19:39.949Z,8.00
2019-02-09T23:22:10.572Z,7.33
2019-02-09T23:24:40.468Z,8.40
2019-02-09T23:27:10.471Z,8.30
2019-02-09T23:29:40.390Z,9.40
2019-02-09T23:32:10.303Z,7.70
2019-02-09T23:34:40.212Z,8.17
2019-02-09T23:37:10.390Z,8.90
2019-02-09T23:39:40.446Z,9.50
2019-02-09T23:42:10.345Z,8.70
2019-02-09T23:44:40.405Z,12.23
2019-02-09T23:47:10.371Z,13.83
2019-02-09T23:49:40.304Z,12.07
2019-02-09T23:52:10.492Z,10.60
2019-02-09T23:54:40.406Z,10.33
2019-02-09T23:57:10.625Z,11.30
2019-02-09T23:59:40.734Z,11.10
